Time;durP1;ratioP1;P1;durP2;ratioP2;P2;SDS_P1;SDS_P2;PMS_P1;PMS_P2;Temp;Humidity;BMP_temperature;BMP_pressure;BME280_temperature;BME280_humidity;BME280_pressure;Samples;Min_cycle;Max_cycle;Signal;HPM_P1;HPM_P2
2020/12/27 00:01:13;;;;;;;6.90;2.13;;;8.60;99.90;;;7.84;100.00;100745.03;4119577;28;20023;-69
2020/12/27 00:03:15;;;;;;;6.28;2.10;;;8.70;99.90;;;7.77;100.00;100739.50;4102290;29;20023;-69
2020/12/27 00:05:15;;;;;;;4.65;1.90;;;8.70;99.90;;;7.78;100.00;100725.41;4118281;28;20045;-69
2020/12/27 00:07:16;;;;;;;6.18;2.20;;;8.70;99.90;;;7.75;100.00;100706.47;4102117;28;20499;-69
2020/12/27 00:09:19;;;;;;;9.85;3.42;;;8.70;99.90;;;7.71;100.00;100695.41;4102414;28;20082;-69
2020/12/27 00:11:20;;;;;;;6.90;2.13;;;8.70;99.90;;;7.80;98.93;100697.22;4119571;28;20027;-69
2020/12/27 00:13:21;;;;;;;7.95;2.65;;;8.70;99.90;;;7.86;99.05;100711.56;4102233;28;20443;-69
2020/12/27 00:15:22;;;;;;;7.25;3.30;;;8.70;99.90;;;7.88;98.40;100704.41;4119405;28;20031;-69
2020/12/27 00:17:23;;;;;;;7.55;2.65;;;8.70;99.90;;;7.94;98.43;100687.25;4102284;29;20489;-69
2020/12/27 00:19:24;;;;;;;3.65;2.53;;;8.70;99.90;;;7.93;98.73;100686.44;4102309;29;20032;-69
2020/12/27 00:21:24;;;;;;;9.40;3.17;;;8.80;99.90;;;8.02;98.95;100674.25;4119371;28;20035;-69
2020/12/27 00:23:25;;;;;;;10.15;2.15;;;8.80;99.90;;;8.03;98.56;100665.41;4102345;29;20026;-69
2020/12/27 00:25:26;;;;;;;9.63;2.33;;;8.90;99.90;;;8.00;99.67;100635.00;4119334;28;20031;-69
2020/12/27 00:27:27;;;;;;;14.30;3.38;;;8.80;99.90;;;7.98;100.00;100649.22;4119409;28;20030;-69
2020/12/27 00:29:28;;;;;;;7.63;2.67;;;8.90;99.90;;;7.99;100.00;100638.59;4101945;29;20058;-69
2020/12/27 00:31:30;;;;;;;9.25;2.17;;;8.90;99.90;;;7.98;100.00;100613.28;4102215;29;20483;-69
2020/12/27 00:33:32;;;;;;;8.02;3.38;;;8.90;99.90;;;8.04;98.92;100617.13;4101964;29;20063;-69
2020/12/27 00:35:33;;;;;;;7.43;2.00;;;8.90;99.90;;;8.12;99.24;100606.75;4104354;28;20029;-69
2020/12/27 00:37:34;;;;;;;10.52;2.83;;;8.90;99.90;;;8.17;97.47;100594.84;4105253;29;20063;-69
2020/12/27 00:39:35;;;;;;;11.55;2.25;;;9.00;99.90;;;8.16;98.79;100598.44;4105276;28;20527;-69
2020/12/27 00:41:36;;;;;;;15.60;3.33;;;9.00;99.90;;;8.20;98.55;100591.91;4105144;28;20051;-69
2020/12/27 00:43:37;;;;;;;12.40;3.00;;;9.00;99.90;;;8.17;97.70;100573.00;4122323;28;20027;-69
2020/12/27 00:45:38;;;;;;;8.13;2.28;;;9.00;99.90;;;8.25;97.00;100546.81;4122091;28;20050;-69
2020/12/27 00:47:39;;;;;;;12.80;2.17;;;9.10;99.90;;;8.29;96.79;100541.16;4124282;28;20035;-69
2020/12/27 00:49:40;;;;;;;11.88;3.28;;;9.10;99.90;;;8.32;96.48;100530.34;4122898;28;20023;-69
2020/12/27 00:51:41;;;;;;;14.57;3.53;;;9.10;99.90;;;8.25;97.12;100512.66;4122502;28;20397;-69
2020/12/27 00:53:42;;;;;;;12.02;2.47;;;9.20;99.90;;;8.28;97.23;100517.63;4122316;28;20026;-69
2020/12/27 00:55:43;;;;;;;9.48;2.50;;;9.20;99.90;;;8.29;97.09;100500.91;4089138;29;20499;-69
2020/12/27 00:57:44;;;;;;;13.82;3.58;;;9.20;99.90;;;8.20;99.06;100491.25;4104865;28;20029;-69
2020/12/27 00:59:45;;;;;;;13.65;3.42;;;9.20;99.90;;;8.21;98.79;100487.66;4122053;28;20035;-69
2020/12/27 01:01:46;;;;;;;14.15;2.45;;;9.20;99.90;;;8.25;98.69;100473.22;4122280;28;20030;-69
2020/12/27 01:03:47;;;;;;;11.05;2.58;;;9.20;99.90;;;8.19;99.59;100463.31;4104956;29;20062;-69
2020/12/27 01:05:48;;;;;;;12.65;3.70;;;9.20;99.90;;;8.29;98.85;100450.97;4122157;28;20030;-69
2020/12/27 01:07:49;;;;;;;12.23;3.13;;;9.10;99.90;;;8.21;99.43;100435.09;4122229;28;20033;-69
2020/12/27 01:09:49;;;;;;;12.13;2.67;;;9.10;99.90;;;8.34;98.93;100432.97;4122072;28;20027;-69
2020/12/27 01:11:50;;;;;;;10.05;3.33;;;9.10;99.90;;;8.29;99.53;100411.56;4121947;28;20030;-69
2020/12/27 01:13:51;;;;;;;12.23;2.88;;;9.10;99.90;;;8.24;99.58;100400.66;4104387;29;20034;-69
2020/12/27 01:15:52;;;;;;;14.05;3.78;;;9.10;99.90;;;8.38;98.38;100381.75;4121997;28;20407;-69
2020/12/27 01:17:53;;;;;;;12.25;2.47;;;9.20;99.90;;;8.34;97.94;100375.16;4104736;29;20059;-69
2020/12/27 01:19:54;;;;;;;16.27;3.30;;;9.20;99.90;;;8.34;97.86;100362.84;4104755;29;20102;-69
2020/12/27 01:21:55;;;;;;;11.15;2.75;;;9.20;99.90;;;8.32;97.85;100361.34;4121755;28;20085;-69
2020/12/27 01:23:56;;;;;;;14.13;3.22;;;9.20;99.90;;;8.44;94.81;100349.63;4121950;28;20050;-69
2020/12/27 01:25:57;;;;;;;14.82;3.30;;;9.20;99.90;;;8.52;94.99;100357.56;4121862;28;20035;-69
2020/12/27 01:27:58;;;;;;;13.63;3.75;;;9.20;99.90;;;8.49;94.25;100363.13;4104585;29;20038;-69
2020/12/27 01:29:59;;;;;;;12.95;2.63;;;9.30;99.90;;;8.48;92.31;100363.28;4120561;28;20054;-69
2020/12/27 01:32:01;;;;;;;16.17;3.67;;;9.30;99.90;;;8.58;90.34;100335.91;4104746;28;20031;-69
2020/12/27 01:34:02;;;;;;;12.43;3.83;;;9.30;99.90;;;8.62;90.37;100321.50;4088757;29;20035;-69
2020/12/27 01:36:03;;;;;;;11.82;3.75;;;9.40;99.90;;;8.59;88.84;100315.72;4120419;28;20035;-69
2020/12/27 01:38:04;;;;;;;12.80;3.78;;;9.40;99.90;;;8.60;89.93;100305.03;4104474;28;20034;-69
2020/12/27 01:40:05;;;;;;;12.90;2.88;;;9.50;99.90;;;8.67;89.25;100300.81;4121893;28;20023;-69
2020/12/27 01:42:06;;;;;;;10.30;2.60;;;9.50;99.90;;;8.58;89.76;100288.59;4121518;28;20509;-69
2020/12/27 01:44:10;;;;;;;11.18;2.92;;;9.50;99.90;;;8.62;89.67;100294.38;4121346;28;20105;-69
2020/12/27 01:46:11;;;;;;;16.10;3.78;;;9.50;99.90;;;8.64;90.76;100266.94;4103462;28;20050;-69
2020/12/27 01:48:14;;;;;;;12.90;3.50;;;9.50;99.90;;;8.79;90.51;100257.50;4122860;28;20062;-69
2020/12/27 01:50:15;;;;;;;14.05;3.28;;;9.50;99.90;;;8.68;91.84;100262.22;4104425;28;20039;-69
2020/12/27 01:52:17;;;;;;;17.55;3.95;;;9.50;99.90;;;8.64;93.05;100253.81;4121380;28;20060;-69
2020/12/27 01:54:21;;;;;;;14.60;4.20;;;9.60;99.90;;;8.65;94.27;100246.75;4104151;29;20039;-69
2020/12/27 01:56:33;;;;;;;17.07;4.33;;;9.50;99.90;;;8.69;94.40;100217.34;4121468;28;20027;-69
2020/12/27 01:58:36;;;;;;;15.15;3.58;;;9.50;99.90;;;8.68;95.54;100210.44;4088255;29;20028;-69
2020/12/27 02:00:37;;;;;;;13.38;3.03;;;9.50;99.90;;;8.73;95.29;100207.34;4121350;28;20023;-69
2020/12/27 02:02:37;;;;;;;17.15;3.53;;;9.60;99.90;;;8.73;96.01;100204.72;4121191;28;20393;-69
2020/12/27 02:04:38;;;;;;;17.67;3.15;;;9.60;99.90;;;8.71;95.43;100194.38;4121399;28;20027;-69
2020/12/27 02:06:42;;;;;;;15.45;3.25;;;9.60;99.90;;;8.74;95.00;100182.72;4104118;29;20506;-69
2020/12/27 02:08:44;;;;;;;16.08;4.55;;;9.60;99.90;;;8.78;94.32;100190.09;4088100;29;20155;-69
2020/12/27 02:10:49;;;;;;;15.38;3.08;;;9.60;99.90;;;8.84;94.02;100192.09;4104029;28;20446;-69
2020/12/27 02:12:50;;;;;;;17.70;3.95;;;9.60;99.90;;;8.88;93.56;100190.81;4121171;28;20030;-69
2020/12/27 02:14:53;;;;;;;11.18;3.03;;;9.70;99.90;;;8.88;94.01;100174.22;4120997;28;20030;-69
2020/12/27 02:16:54;;;;;;;12.50;3.50;;;9.70;99.90;;;8.92;92.55;100182.59;4103986;28;20046;-69
2020/12/27 02:19:02;;;;;;;16.15;3.45;;;9.70;99.90;;;8.94;91.65;100162.22;4104004;28;20275;-69
2020/12/27 02:21:03;;;;;;;12.63;3.00;;;9.80;99.90;;;8.98;89.93;100139.88;4104424;28;20549;-69
2020/12/27 02:23:10;;;;;;;16.00;2.90;;;9.80;99.90;;;8.96;90.31;100160.28;4103777;29;20043;-69
2020/12/27 02:25:11;;;;;;;11.43;2.65;;;9.90;99.90;;;9.00;89.10;100148.44;4104192;28;20032;-69
2020/12/27 02:27:11;;;;;;;14.43;3.70;;;9.80;99.90;;;8.99;88.15;100138.91;4103955;29;20032;-69
2020/12/27 02:29:12;;;;;;;12.43;2.45;;;9.80;99.90;;;8.94;89.17;100141.19;4120629;28;20294;-69
2020/12/27 02:31:13;;;;;;;8.43;2.50;;;9.80;99.90;;;8.98;88.99;100117.03;4120892;28;20062;-69
2020/12/27 02:33:14;;;;;;;16.73;3.47;;;9.80;99.90;;;9.05;88.10;100118.03;4103680;29;20031;-69
2020/12/27 02:35:15;;;;;;;14.05;3.20;;;9.90;99.90;;;9.01;87.94;100100.94;4103615;29;20059;-69
2020/12/27 02:37:15;;;;;;;24.25;3.63;;;9.90;99.90;;;9.02;87.85;100091.25;4120773;28;20034;-69
2020/12/27 02:39:19;;;;;;;16.08;4.15;;;9.90;99.90;;;9.00;87.54;100095.81;4103695;29;20099;-69
2020/12/27 02:41:23;;;;;;;11.90;3.42;;;9.90;99.90;;;8.97;87.04;100078.56;4087466;29;20041;-69
2020/12/27 02:43:24;;;;;;;13.70;3.38;;;9.90;99.90;;;9.04;87.15;100079.56;4103546;28;20557;-70
2020/12/27 02:45:25;;;;;;;14.18;4.07;;;9.90;99.90;;;8.99;86.82;100060.78;4120764;28;20035;-69
2020/12/27 02:47:25;;;;;;;22.02;4.15;;;9.90;99.90;;;9.00;85.89;100041.41;4103182;29;20469;-69
2020/12/27 02:49:26;;;;;;;12.43;3.42;;;9.90;99.90;;;9.00;86.43;100032.69;4120402;28;20076;-69
2020/12/27 02:51:28;;;;;;;18.33;3.72;;;9.90;99.90;;;8.99;86.75;100023.16;4103479;29;20055;-69
2020/12/27 02:53:29;;;;;;;18.50;3.10;;;9.90;99.90;;;9.12;85.48;100000.63;4120570;28;20085;-69
2020/12/27 02:55:31;;;;;;;11.57;3.28;;;9.90;99.90;;;9.15;86.02;99988.94;4120441;28;20438;-69
2020/12/27 02:57:32;;;;;;;15.23;3.63;;;10.00;99.90;;;9.13;86.61;99967.25;4102956;28;20503;-69
2020/12/27 02:59:33;;;;;;;24.60;3.50;;;10.00;99.90;;;9.19;87.27;99985.03;4120249;28;20082;-69
2020/12/27 03:01:34;;;;;;;12.13;3.03;;;10.00;99.90;;;9.12;88.70;99982.22;4120588;28;20074;-69
2020/12/27 03:03:35;;;;;;;15.38;3.70;;;10.00;99.90;;;9.10;90.38;99967.59;4120476;28;20030;-69
2020/12/27 03:05:36;;;;;;;12.75;3.63;;;10.00;99.90;;;9.04;92.63;99973.50;4103121;29;20109;-69
2020/12/27 03:07:37;;;;;;;18.25;4.38;;;10.00;99.90;;;8.98;94.33;99958.38;4120528;28;20031;-69
2020/12/27 03:09:38;;;;;;;18.17;4.85;;;9.90;99.90;;;8.82;96.56;99944.25;4103140;29;20050;-69
2020/12/27 03:11:38;;;;;;;16.27;4.45;;;9.80;99.90;;;8.72;97.73;99935.69;4103116;29;20023;-69
2020/12/27 03:13:39;;;;;;;19.27;4.53;;;9.80;99.90;;;8.69;98.41;99943.91;4102808;29;20046;-69
2020/12/27 03:15:40;;;;;;;17.70;3.63;;;9.70;99.90;;;8.68;98.21;99917.78;4103101;29;20235;-69
2020/12/27 03:17:41;;;;;;;24.55;3.92;;;9.70;99.90;;;8.80;97.44;99917.31;4120241;28;20031;-69
2020/12/27 03:19:42;;;;;;;18.33;4.03;;;9.60;99.90;;;8.76;96.81;99907.25;4120089;28;20030;-69
2020/12/27 03:21:42;;;;;;;18.00;4.63;;;9.60;99.90;;;8.79;97.00;99918.28;4120009;28;20027;-69
2020/12/27 03:23:44;;;;;;;14.10;4.07;;;9.70;99.90;;;8.89;93.46;99926.84;4103039;29;20023;-69
2020/12/27 03:25:45;;;;;;;13.57;4.40;;;9.70;99.90;;;8.97;93.77;99910.22;4120169;28;20026;-69
2020/12/27 03:27:45;;;;;;;22.95;3.95;;;9.80;99.90;;;9.03;92.62;99908.72;4087009;29;20495;-69
2020/12/27 03:29:46;;;;;;;15.70;4.13;;;9.80;99.90;;;8.94;92.33;99900.03;4119802;28;20027;-69
2020/12/27 03:31:47;;;;;;;16.98;5.13;;;9.80;99.90;;;9.04;91.24;99889.31;4103008;29;20058;-69
2020/12/27 03:33:48;;;;;;;23.25;3.80;;;9.90;99.90;;;9.00;90.63;99869.59;4120048;28;20027;-69
2020/12/27 03:35:49;;;;;;;25.83;4.43;;;9.90;99.90;;;9.05;89.65;99862.84;4102842;29;20027;-69
2020/12/27 03:37:50;;;;;;;20.55;5.15;;;9.90;99.90;;;9.12;89.10;99863.00;4102724;28;20070;-69
2020/12/27 03:39:51;;;;;;;18.20;4.28;;;9.90;99.90;;;9.04;89.89;99842.81;4119769;28;20023;-69
2020/12/27 03:41:52;;;;;;;19.52;3.38;;;9.90;99.90;;;9.15;88.72;99838.97;4119793;28;20047;-69
2020/12/27 03:43:52;;;;;;;21.33;4.65;;;9.90;99.90;;;9.15;89.69;99838.97;4102706;29;20035;-69
2020/12/27 03:45:53;;;;;;;23.60;4.90;;;10.00;99.90;;;9.15;90.11;99828.47;4102778;29;20027;-69
2020/12/27 03:47:54;;;;;;;25.05;4.53;;;10.00;99.90;;;9.28;89.25;99811.16;4122577;28;20030;-69
2020/12/27 03:49:55;;;;;;;22.25;4.20;;;10.10;99.90;;;9.22;89.94;99771.53;4102879;29;20031;-69
2020/12/27 03:51:56;;;;;;;11.57;3.97;;;10.10;99.90;;;9.33;89.55;99758.00;4119948;28;20459;-69
2020/12/27 03:53:57;;;;;;;18.10;3.83;;;10.10;99.90;;;9.36;89.62;99741.88;4119804;28;20034;-69
2020/12/27 03:55:58;;;;;;;17.50;3.53;;;10.20;99.90;;;9.37;89.11;99714.56;4119632;28;20038;-69
2020/12/27 03:57:59;;;;;;;22.50;6.35;;;10.20;99.90;;;9.43;89.26;99730.50;4102466;29;20078;-69
2020/12/27 04:00:03;;;;;;;20.65;3.67;;;10.20;99.90;;;9.39;89.51;99715.19;4102767;29;20038;-69
2020/12/27 04:02:04;;;;;;;20.85;5.18;;;10.30;99.90;;;9.41;89.69;99708.78;4102986;28;20020;-69
2020/12/27 04:04:05;;;;;;;19.80;4.53;;;10.30;99.90;;;9.32;90.83;99719.50;4102547;28;20039;-69
2020/12/27 04:06:05;;;;;;;21.38;4.45;;;10.30;99.90;;;9.46;89.61;99721.44;4102644;28;20141;-69
2020/12/27 04:08:06;;;;;;;21.05;4.88;;;10.30;99.90;;;9.46;90.18;99718.78;4119750;28;20034;-69
2020/12/27 04:10:09;;;;;;;18.85;4.70;;;10.30;99.90;;;9.39;89.57;99710.75;4119072;28;20057;-69
2020/12/27 04:12:13;;;;;;;21.20;5.80;;;10.30;99.90;;;9.47;88.13;99690.66;4119518;28;20061;-69
2020/12/27 04:14:14;;;;;;;;;;;10.30;99.90;;;9.51;87.03;99690.13;4119913;28;20030;-69
2020/12/27 04:16:15;;;;;;;21.27;5.55;;;10.30;99.90;;;9.48;87.70;99669.41;4119642;28;19914;-69
2020/12/27 04:18:16;;;;;;;20.05;4.15;;;10.30;99.90;;;9.51;87.91;99660.34;4102348;29;20034;-69
2020/12/27 04:20:17;;;;;;;15.20;4.07;;;10.40;99.90;;;9.49;87.58;99662.34;4119328;28;20097;-69
2020/12/27 04:22:17;;;;;;;24.65;5.50;;;10.30;99.90;;;9.48;86.77;99618.56;4102379;29;20078;-69
2020/12/27 04:24:18;;;;;;;15.13;4.10;;;10.30;99.90;;;9.54;86.07;99581.84;4102285;29;20086;-69
2020/12/27 04:26:19;;;;;;;18.20;3.92;;;10.40;99.90;;;9.49;86.63;99571.03;4119435;28;20038;-69
2020/12/27 04:28:20;;;;;;;19.25;4.00;;;10.40;99.90;;;9.49;87.35;99559.69;4102008;29;20039;-69
2020/12/27 04:30:21;;;;;;;23.15;5.35;;;10.40;99.90;;;9.46;86.34;99550.34;4102340;29;20399;-69
2020/12/27 04:32:24;;;;;;;20.33;4.40;;;10.30;99.90;;;9.45;88.45;99578.47;4102351;29;20038;-69
2020/12/27 04:34:25;;;;;;;21.00;4.10;;;10.30;99.90;;;9.49;88.35;99584.19;4102306;29;20118;-69
2020/12/27 04:36:26;;;;;;;19.80;4.28;;;10.30;99.90;;;9.42;89.55;99588.53;4102160;29;20081;-69
2020/12/27 04:38:27;;;;;;;23.98;4.78;;;10.30;99.90;;;9.45;89.35;99590.78;4119397;28;20070;-69
2020/12/27 04:40:28;;;;;;;20.63;4.13;;;10.30;99.90;;;9.49;89.46;99592.09;4102141;29;20019;-69
2020/12/27 04:42:28;;;;;;;23.58;5.50;;;10.30;99.90;;;9.48;89.80;99579.91;4102064;28;20051;-69
2020/12/27 04:44:32;;;;;;;23.13;5.53;;;10.40;99.90;;;9.55;89.92;99593.19;4101892;29;20035;-69
2020/12/27 04:46:33;;;;;;;18.35;4.80;;;10.40;99.90;;;9.44;90.76;99582.06;4102263;28;20035;-69
2020/12/27 04:48:35;;;;;;;29.23;5.25;;;10.40;99.90;;;9.50;90.88;99585.81;4102124;28;20110;-69
2020/12/27 04:50:36;;;;;;;23.95;4.20;;;10.40;99.90;;;9.52;91.10;99591.75;4102119;28;20046;-69
2020/12/27 04:52:37;;;;;;;24.48;5.75;;;10.40;99.90;;;9.49;91.43;99594.72;4101927;28;20027;-69
2020/12/27 04:54:38;;;;;;;22.27;5.03;;;10.30;99.90;;;9.22;94.18;99597.88;4102201;28;20066;-69
2020/12/27 04:56:45;;;;;;;22.98;4.82;;;10.20;99.90;;;9.15;96.12;99566.19;4102100;28;20031;-69
2020/12/27 04:58:48;;;;;;;31.25;6.93;;;10.10;99.90;;;8.97;98.42;99549.06;4102031;28;20039;-70
2020/12/27 05:00:49;;;;;;;23.73;5.53;;;10.00;99.90;;;8.84;99.97;99550.44;4101906;28;20502;-69
2020/12/27 05:02:50;;;;;;;27.70;5.72;;;9.80;99.90;;;8.79;100.00;99539.63;4119622;28;20093;-69
2020/12/27 05:04:51;;;;;;;20.88;5.85;;;9.80;99.90;;;8.80;100.00;99512.38;4102147;29;20031;-69
2020/12/27 05:06:56;;;;;;;25.27;5.28;;;9.80;99.90;;;8.77;100.00;99520.59;4101799;29;20034;-70
2020/12/27 05:08:59;;;;;;;25.58;6.35;;;9.70;99.90;;;8.78;100.00;99516.16;4101933;29;20027;-70
2020/12/27 05:11:02;;;;;;;26.40;6.63;;;9.70;99.90;;;8.85;100.00;99510.00;4101916;28;20035;-69
2020/12/27 05:13:03;;;;;;;27.98;5.97;;;9.70;99.90;;;8.81;100.00;99500.81;4118932;28;20061;-69
2020/12/27 05:15:07;;;;;;;25.60;5.13;;;9.70;99.90;;;8.75;100.00;99475.22;4102006;29;20027;-69
2020/12/27 05:17:11;;;;;;;21.98;7.13;;;9.70;99.90;;;8.74;100.00;99484.13;4085845;29;20072;-69
2020/12/27 05:19:13;;;;;;;;;;;9.60;99.90;;;8.76;100.00;99450.59;4102894;28;20039;-69
2020/12/27 05:21:13;;;;;;;27.77;6.45;;;9.70;99.90;;;8.82;100.00;99456.94;4119252;28;19917;-69
2020/12/27 05:23:14;;;;;;;35.75;6.25;;;9.70;99.90;;;8.75;100.00;99459.47;4121931;28;20023;-69
2020/12/27 05:25:15;;;;;;;28.27;7.78;;;9.70;99.90;;;8.68;100.00;99442.78;4121749;28;20035;-69
2020/12/27 05:27:16;;;;;;;26.60;5.88;;;9.60;99.90;;;8.68;100.00;99429.63;4122061;28;20027;-69
2020/12/27 05:29:35;;;;;;;26.45;6.55;;;9.60;99.90;;;8.71;100.00;99423.19;4104487;28;20462;-69
2020/12/27 05:31:38;;;;;;;21.30;6.10;;;9.70;99.90;;;8.73;100.00;99436.97;4104742;28;20027;-69
2020/12/27 05:33:43;;;;;;;26.83;5.82;;;9.60;99.90;;;8.77;100.00;99393.56;4104651;29;20035;-69
2020/12/27 05:35:44;;;;;;;27.95;6.05;;;9.60;99.90;;;8.75;100.00;99399.00;4104535;28;20024;-69
2020/12/27 05:37:48;;;;;;;25.45;7.32;;;9.70;99.90;;;8.81;100.00;99377.25;4121652;28;20038;-69
2020/12/27 05:39:49;;;;;;;31.92;8.73;;;9.70;99.90;;;8.79;100.00;99374.00;4104357;28;20162;-69
2020/12/27 05:41:50;;;;;;;29.58;7.00;;;9.70;99.90;;;8.83;100.00;99327.13;4121437;28;20055;-69
2020/12/27 05:44:02;;;;;;;29.70;6.25;;;9.70;99.90;;;8.84;100.00;99355.84;4104289;29;20027;-69
2020/12/27 05:46:03;;;;;;;32.38;6.82;;;9.70;99.90;;;8.82;100.00;99364.94;4121551;28;20114;-69
2020/12/27 05:48:04;;;;;;;33.10;6.25;;;9.70;99.90;;;8.88;100.00;99374.72;4104246;28;20566;-69
2020/12/27 05:50:07;;;;;;;31.65;7.43;;;9.80;99.90;;;8.87;100.00;99352.88;4104382;28;20222;-69
2020/12/27 05:52:15;;;;;;;37.13;7.60;;;9.80;99.90;;;8.90;100.00;99351.69;4121413;28;20034;-69
2020/12/27 05:54:26;;;;;;;23.75;4.97;;;9.80;99.90;;;8.93;100.00;99334.75;4104344;28;20071;-69
2020/12/27 05:56:29;;;;;;;29.45;6.07;;;9.80;99.90;;;8.96;100.00;99327.31;4104295;28;20023;-69
2020/12/27 05:58:32;;;;;;;27.63;5.25;;;9.80;99.90;;;8.95;100.00;99323.06;4104029;28;20027;-69
2020/12/27 06:00:35;;;;;;;23.38;6.20;;;9.80;99.90;;;8.94;100.00;99289.03;4121388;28;20045;-69
2020/12/27 06:02:42;;;;;;;23.00;5.45;;;9.80;99.90;;;8.95;100.00;99301.19;4104197;28;20028;-69
2020/12/27 06:05:15;;;;;;;36.83;6.05;;;9.80;99.90;;;8.99;100.00;99284.88;4104238;28;20131;-69
2020/12/27 06:07:35;;;;;;;33.25;6.63;;;9.80;99.90;;;8.84;100.00;99248.06;4121071;28;20105;-69
2020/12/27 06:10:09;;;;;;;29.15;6.30;;;9.80;99.90;;;8.89;100.00;99260.69;4104344;28;20506;-69
2020/12/27 06:12:13;;;;;;;26.33;6.15;;;9.80;99.90;;;8.94;100.00;99244.34;4121293;28;20033;-69
2020/12/27 06:14:38;;;;;;;25.55;6.07;;;9.80;99.90;;;8.92;100.00;99257.69;4103797;29;20035;-69
2020/12/27 06:16:45;;;;;;;36.67;7.30;;;9.80;99.90;;;8.95;100.00;99244.16;4105349;28;20039;-69
2020/12/27 06:19:12;;;;;;;38.17;9.32;;;9.80;99.90;;;8.96;100.00;99213.44;4121323;28;20030;-69
2020/12/27 06:21:13;;;;;;;27.48;7.32;;;9.90;99.90;;;8.99;100.00;99224.38;4105176;28;20460;-69
2020/12/27 06:23:14;;;;;;;25.08;5.45;;;9.90;99.90;;;9.06;100.00;99229.72;4104028;28;20101;-69
2020/12/27 06:25:17;;;;;;;32.60;7.00;;;9.90;99.90;;;9.07;100.00;99226.94;4103887;29;20035;-69
2020/12/27 06:27:18;;;;;;;29.73;7.40;;;9.90;99.90;;;9.07;100.00;99190.09;4104167;28;20043;-69
2020/12/27 06:29:19;;;;;;;28.48;5.13;;;10.00;99.90;;;9.06;100.00;99179.75;4087610;29;20119;-69
2020/12/27 06:31:24;;;;;;;23.60;5.90;;;9.90;99.90;;;8.98;100.00;99191.22;4103757;29;20035;-69
2020/12/27 06:33:31;;;;;;;29.73;7.07;;;9.90;99.90;;;9.09;100.00;99174.94;4103406;28;20039;-69
2020/12/27 06:35:37;;;;;;;30.45;6.13;;;9.90;99.90;;;9.01;100.00;99167.16;4104290;28;20035;-69
2020/12/27 06:37:43;;;;;;;34.25;7.93;;;9.90;99.90;;;8.89;100.00;99151.06;4103678;29;20031;-69
2020/12/27 06:39:46;;;;;;;30.50;6.88;;;9.80;99.90;;;8.95;100.00;99143.41;4120833;28;20042;-69
2020/12/27 06:42:10;;;;;;;38.78;9.30;;;9.90;99.90;;;8.98;100.00;99122.00;4119529;28;20066;-69
2020/12/27 06:44:43;;;;;;;20.83;5.88;;;9.80;99.90;;;9.00;100.00;99117.38;4119349;28;20033;-69
2020/12/27 06:46:47;;;;;;;23.60;6.55;;;9.80;99.90;;;9.00;100.00;99106.84;4120743;28;20050;-69
2020/12/27 06:48:48;;;;;;;29.92;7.28;;;9.90;99.90;;;8.98;100.00;99103.59;4103432;28;20462;-69
2020/12/27 06:50:48;;;;;;;27.58;6.82;;;9.80;99.90;;;8.99;100.00;99082.38;4103411;28;20037;-69
2020/12/27 06:52:49;;;;;;;40.08;6.80;;;9.90;99.90;;;9.07;100.00;99081.44;4103265;28;20027;-69
2020/12/27 06:54:54;;;;;;;37.40;6.57;;;9.90;99.90;;;9.06;100.00;99064.03;4120545;28;20038;-69
2020/12/27 06:56:56;;;;;;;31.95;7.38;;;9.90;99.90;;;9.05;100.00;99052.69;4103348;29;20046;-69
2020/12/27 06:59:01;;;;;;;33.67;7.70;;;9.90;99.90;;;9.06;100.00;99050.88;4103087;28;20058;-69
2020/12/27 07:01:13;;;;;;;37.45;6.88;;;9.90;99.90;;;9.03;100.00;99035.47;4103249;29;20027;-69
2020/12/27 07:03:20;;;;;;;30.23;6.57;;;9.90;99.90;;;9.00;100.00;99030.59;4087181;29;20070;-69
2020/12/27 07:05:34;;;;;;;34.13;6.82;;;9.80;99.90;;;9.01;100.00;99016.44;4120352;28;20102;-69
2020/12/27 07:07:47;;;;;;;33.03;8.20;;;9.90;99.90;;;9.06;100.00;98988.56;4103422;28;20035;-70
2020/12/27 07:09:51;;;;;;;42.20;8.20;;;9.90;99.90;;;9.06;100.00;98978.06;4120374;28;20030;-69
2020/12/27 07:12:07;;;;;;;42.45;8.18;;;9.90;99.90;;;9.08;100.00;98978.66;4103136;28;20023;-69
2020/12/27 07:14:10;;;;;;;32.30;6.53;;;9.90;99.90;;;9.13;100.00;98963.16;4086953;29;20036;-69
2020/12/27 07:16:14;;;;;;;31.23;7.07;;;9.90;99.90;;;9.07;100.00;98965.72;4120145;28;20033;-69
2020/12/27 07:18:27;;;;;;;31.80;6.53;;;9.90;99.90;;;8.94;100.00;98957.72;4103106;28;20086;-69
2020/12/27 07:20:31;;;;;;;26.27;7.28;;;9.80;99.90;;;8.98;100.00;98937.94;4103032;28;20027;-69
2020/12/27 07:22:32;;;;;;;34.67;6.68;;;9.90;99.90;;;9.02;100.00;98937.34;4103071;28;20038;-69
2020/12/27 07:24:36;;;;;;;35.00;6.13;;;9.80;99.90;;;9.00;100.00;98938.53;4120118;28;20022;-69
2020/12/27 07:26:43;;;;;;;32.80;6.68;;;9.90;99.90;;;8.94;100.00;98921.72;4087036;29;20114;-69
2020/12/27 07:28:45;;;;;;;30.40;6.72;;;9.80;99.90;;;9.02;100.00;98908.41;4102843;28;20039;-69
2020/12/27 07:30:48;;;;;;;32.83;6.57;;;9.80;99.90;;;8.98;100.00;98880.88;4120158;28;20031;-69
2020/12/27 07:32:51;;;;;;;37.45;6.97;;;9.90;99.90;;;9.04;100.00;98890.66;4102936;28;20028;-69
2020/12/27 07:34:55;;;;;;;32.63;7.68;;;9.90;99.90;;;9.01;100.00;98895.47;4119848;28;20030;-69
2020/12/27 07:37:05;;;;;;;33.33;7.22;;;9.90;99.90;;;9.00;100.00;98857.00;4103034;28;20035;-69
2020/12/27 07:39:13;;;;;;;30.58;7.05;;;9.80;99.90;;;9.03;100.00;98862.72;4120006;28;20198;-69
2020/12/27 07:41:31;;;;;;;26.35;7.45;;;9.90;99.90;;;9.03;100.00;98851.38;4102316;29;20581;-69
2020/12/27 07:43:32;;;;;;;29.42;6.97;;;9.90;99.90;;;8.95;100.00;98828.69;4102812;28;20052;-69
2020/12/27 07:45:33;;;;;;;33.35;7.07;;;9.90;99.90;;;8.92;100.00;98820.38;4102205;28;20031;-69
2020/12/27 07:47:39;;;;;;;32.13;8.38;;;9.90;99.90;;;8.94;100.00;98819.16;4121011;28;20062;-69
2020/12/27 07:49:39;;;;;;;29.05;7.10;;;9.80;99.90;;;9.00;100.00;98807.88;4103281;28;20031;-69
2020/12/27 07:51:41;;;;;;;31.02;6.13;;;9.80;99.90;;;9.00;100.00;98807.88;4118687;28;20035;-69
2020/12/27 07:53:56;;;;;;;33.65;7.00;;;9.80;99.90;;;9.02;100.00;98794.53;4102550;28;20492;-69
2020/12/27 07:55:56;;;;;;;31.00;6.20;;;9.80;99.90;;;8.99;100.00;98789.66;4102404;28;20031;-69
2020/12/27 07:58:04;;;;;;;42.50;8.73;;;9.90;99.90;;;9.00;100.00;98772.88;4102242;29;20062;-70
2020/12/27 08:00:08;;;;;;;34.90;6.05;;;9.80;99.90;;;9.04;100.00;98766.22;4102518;28;20024;-69
2020/12/27 08:02:10;;;;;;;31.25;6.30;;;9.90;99.90;;;8.92;100.00;98739.66;4102497;28;20066;-69
2020/12/27 08:04:10;;;;;;;38.13;6.43;;;9.90;99.90;;;9.05;100.00;98754.72;4102345;28;20031;-69
2020/12/27 08:06:19;;;;;;;26.98;6.00;;;9.90;99.90;;;9.02;100.00;98760.34;4102327;29;20042;-69
2020/12/27 08:08:22;;;;;;;42.60;7.43;;;9.90;99.90;;;9.11;100.00;98736.31;4119462;28;20030;-69
2020/12/27 08:10:26;;;;;;;36.95;7.13;;;9.90;99.90;;;9.03;100.00;98722.50;4102361;29;20546;-69
2020/12/27 08:12:27;;;;;;;32.73;6.10;;;9.90;99.90;;;9.08;100.00;98738.53;4086359;29;20107;-69
2020/12/27 08:14:31;;;;;;;40.08;8.10;;;9.90;99.90;;;9.11;100.00;98667.91;4086174;29;20288;-69
2020/12/27 08:16:36;;;;;;;23.67;6.28;;;9.90;99.90;;;9.12;100.00;98709.00;4102196;28;20035;-69
2020/12/27 08:18:37;;;;;;;32.45;7.50;;;9.90;99.90;;;9.12;100.00;98693.22;4119541;28;20034;-69
2020/12/27 08:20:50;;;;;;;40.65;8.77;;;10.00;99.90;;;9.16;100.00;98694.47;4102336;29;20034;-69
2020/12/27 08:23:03;;;;;;;35.53;7.03;;;10.00;99.90;;;9.12;100.00;98679.25;4119467;28;20034;-69
2020/12/27 08:25:13;;;;;;;39.42;8.27;;;10.00;99.90;;;9.10;100.00;98684.72;4119553;28;20026;-69
2020/12/27 08:27:14;;;;;;;24.98;5.80;;;10.00;99.90;;;9.14;100.00;98678.06;4102575;29;20038;-69
2020/12/27 08:29:20;;;;;;;43.13;8.68;;;10.00;99.90;;;9.08;100.00;98647.28;4119183;28;20034;-69
2020/12/27 08:31:28;;;;;;;36.45;8.10;;;10.00;99.90;;;9.09;100.00;98661.25;4086465;29;20063;-70
2020/12/27 08:33:29;;;;;;;42.60;7.97;;;9.90;99.90;;;9.01;100.00;98629.88;4119215;28;20030;-69
2020/12/27 08:35:30;;;;;;;33.83;6.72;;;9.90;99.90;;;9.09;100.00;98653.34;4102136;29;20058;-69
2020/12/27 08:37:34;;;;;;;39.83;7.65;;;9.90;99.90;;;9.02;100.00;98628.88;4118143;28;20110;-69
2020/12/27 08:39:53;;;;;;;35.22;6.78;;;9.90;99.90;;;9.00;100.00;98620.34;4086392;29;20372;-69